ESMK

Kristianstad Airport

Kristianstad, Sweden
METAR ESMK 250020Z AUTO 26009KT 9999 FEW095/// 08/04 Q1005
Observed Flight Rules
Apr-25 @ 00:20 UTC (18 minutes ago) Visual Flight Rules
Wind Visibility Clouds
260° at 9 knots 10,000+ meters
  • Few at 9,500' AGL
Temperatures Readings
Current 8°C / 46°F
Dewpoint 4°C / 39°F
Humidity 76%
Altimeter 29.68" Hg
Pressure 1005 hPa
Elevation 23
METAR ESMK 250020Z AUTO 26009KT 9999 FEW095/// 08/04 Q1005
Observed Flight Rules
Apr-25 @ 00:20 UTC
(18 minutes ago)
VFR
Wind Visibility
260° at 9 knots 10,000+ meters
Clouds
  • Few at 9,500' AGL
Temperature Dewpoint
8°C / 46°F 4°C / 39°F
Humidity Altimeter Pressure
76% 29.68" Hg 1005 hPa